Weather at Buffalo Niagara International Airport

Public forecast

Using degrees Fahrenheit for public forecast. Weather courtesy of forecast.io.

Current aviation weather report (METAR) for Buffalo Niagara International Airport

Retrieved 2020/09/21 15:54 UTC (47 minutes ago):

KBUF 211554Z 20005KT 10SM FEW065 FEW190 FEW260 18/01 A3057 RMK AO2 SLP353 T01780006

Aviation forecast (TAF) for Buffalo Niagara International Airport

Retrieved 2020/09/21 12:22 UTC (4 hours ago):

TAF KBUF 211120Z 2112/2212 13005KT P6SM SKC FM211400 18008KT P6SM SKC FM211700 23004KT P6SM FEW250 FM220000 07005KT P6SM SKC